createdAt,value
2022-08-25T00:00:04.538Z,98315.88
2022-08-25T00:03:10.930Z,98317.16
2022-08-25T00:06:19.848Z,98318.00
2022-08-25T00:09:29.545Z,98305.88
2022-08-25T00:12:38.177Z,98307.22
2022-08-25T00:15:44.042Z,98311.53
2022-08-25T00:18:55.592Z,98304.84
2022-08-25T00:22:05.961Z,98306.13
2022-08-25T00:25:13.239Z,98310.59
2022-08-25T00:28:19.519Z,98307.78
2022-08-25T00:31:37.539Z,98316.69
2022-08-25T00:34:44.796Z,98311.53
2022-08-25T00:37:52.928Z,98306.38
2022-08-25T00:41:08.691Z,98300.78
2022-08-25T00:44:17.677Z,98295.88
2022-08-25T00:47:23.313Z,98303.25
2022-08-25T00:50:30.408Z,98302.06
2022-08-25T00:53:39.043Z,98290.22
2022-08-25T00:56:46.271Z,98295.50
2022-08-25T00:59:52.417Z,98295.88
2022-08-25T01:02:59.612Z,98292.91
2022-08-25T01:06:10.371Z,98298.31
2022-08-25T01:09:21.785Z,98287.53
2022-08-25T01:12:27.439Z,98290.13
2022-08-25T01:15:34.372Z,98287.88
2022-08-25T01:18:50.987Z,98286.22
2022-08-25T01:22:00.097Z,98282.47
2022-08-25T01:25:30.076Z,98274.81
2022-08-25T01:28:36.189Z,98279.38
2022-08-25T01:31:45.355Z,98285.81
2022-08-25T01:34:51.814Z,98283.50
2022-08-25T01:38:06.308Z,98286.78
2022-08-25T01:42:02.100Z,98272.19
2022-08-25T01:45:22.066Z,98274.34
2022-08-25T01:48:27.658Z,98269.75
2022-08-25T01:51:42.236Z,98266.09
2022-08-25T01:54:53.358Z,98268.34
2022-08-25T01:58:05.246Z,98263.16
2022-08-25T02:01:18.049Z,98257.88
2022-08-25T02:04:23.650Z,98259.78
2022-08-25T02:07:29.598Z,98269.50
2022-08-25T02:10:38.315Z,98273.38
2022-08-25T02:13:45.380Z,98269.19
2022-08-25T02:16:55.215Z,98271.41
2022-08-25T02:20:01.220Z,98270.50
2022-08-25T02:23:07.072Z,98270.81
2022-08-25T02:26:19.178Z,98262.25
2022-08-25T02:29:24.826Z,98260.28
2022-08-25T02:32:31.473Z,98263.44
2022-08-25T02:35:37.572Z,98264.84
2022-08-25T02:38:43.871Z,98263.34
2022-08-25T02:41:52.208Z,98262.38
2022-08-25T02:44:58.270Z,98260.84
2022-08-25T02:48:04.077Z,98268.72
2022-08-25T02:51:12.546Z,98263.47
2022-08-25T02:54:18.476Z,98257.34
2022-08-25T02:57:26.753Z,98258.84
2022-08-25T03:00:32.368Z,98256.28
2022-08-25T03:03:39.592Z,98257.59
2022-08-25T03:06:45.151Z,98258.75
2022-08-25T03:09:51.070Z,98253.22
2022-08-25T03:13:00.228Z,98249.59
2022-08-25T03:16:11.364Z,98246.16
2022-08-25T03:19:18.353Z,98247.84
2022-08-25T03:22:24.196Z,98241.13
2022-08-25T03:25:42.213Z,98233.94
2022-08-25T03:28:56.744Z,98236.19
2022-08-25T03:32:03.587Z,98238.38
2022-08-25T03:35:17.192Z,98234.53
2022-08-25T03:38:23.192Z,98240.88
2022-08-25T03:41:32.923Z,98240.88
2022-08-25T03:44:50.622Z,98245.78
2022-08-25T03:48:00.755Z,98236.53
2022-08-25T03:51:12.198Z,98242.97
2022-08-25T03:54:20.101Z,98243.44
2022-08-25T03:57:26.336Z,98240.28
2022-08-25T04:00:41.232Z,98241.34
2022-08-25T04:03:53.124Z,98248.84
2022-08-25T04:06:58.893Z,98243.09
2022-08-25T04:10:17.254Z,98249.44
2022-08-25T04:13:23.136Z,98241.34
2022-08-25T04:16:35.859Z,98250.03
2022-08-25T04:19:41.956Z,98242.75
2022-08-25T04:22:47.790Z,98249.56
2022-08-25T04:25:53.369Z,98244.97
2022-08-25T04:29:09.364Z,98245.44
2022-08-25T04:32:35.480Z,98243.59
2022-08-25T04:35:41.473Z,98245.13
2022-08-25T04:38:55.161Z,98246.41
2022-08-25T04:42:01.265Z,98247.56
2022-08-25T04:45:21.788Z,98245.22
2022-08-25T04:48:30.115Z,98249.31
2022-08-25T04:51:40.899Z,98246.91
2022-08-25T04:54:50.418Z,98254.41
2022-08-25T04:57:56.082Z,98245.25
2022-08-25T05:01:06.036Z,98252.28
2022-08-25T05:04:27.676Z,98245.53
2022-08-25T05:07:34.236Z,98241.50
2022-08-25T05:10:44.056Z,98243.06
2022-08-25T05:13:53.273Z,98241.41
2022-08-25T05:16:59.481Z,98238.16
2022-08-25T05:20:09.342Z,98239.53
2022-08-25T05:23:15.860Z,98234.69
2022-08-25T05:26:24.574Z,98233.81
2022-08-25T05:29:30.747Z,98239.22
2022-08-25T05:32:36.516Z,98244.63
2022-08-25T05:35:45.303Z,98244.09
2022-08-25T05:38:57.335Z,98242.16
2022-08-25T05:42:14.662Z,98239.53
2022-08-25T05:45:28.952Z,98246.81
2022-08-25T05:48:35.002Z,98244.72
2022-08-25T05:51:43.304Z,98235.72
2022-08-25T05:54:51.298Z,98231.22
2022-08-25T05:57:57.271Z,98228.16
2022-08-25T06:01:31.421Z,98233.56
2022-08-25T06:04:41.092Z,98241.50
2022-08-25T06:07:53.001Z,98232.09
2022-08-25T06:11:02.644Z,98224.22
2022-08-25T06:14:08.974Z,98235.84
2022-08-25T06:17:14.871Z,98233.66
2022-08-25T06:20:25.804Z,98236.84
2022-08-25T06:23:34.164Z,98246.88
2022-08-25T06:26:40.260Z,98244.16
2022-08-25T06:29:46.564Z,98240.16
2022-08-25T06:32:52.673Z,98241.38
2022-08-25T06:36:00.186Z,98237.28
2022-08-25T06:39:24.999Z,98240.19
2022-08-25T06:42:31.201Z,98238.13
2022-08-25T06:45:36.863Z,98242.94
2022-08-25T06:48:43.177Z,98237.16
2022-08-25T06:51:49.786Z,98237.72
2022-08-25T06:54:58.136Z,98229.78
2022-08-25T06:58:04.936Z,98235.19
2022-08-25T07:01:20.535Z,98232.34
2022-08-25T07:04:26.366Z,98226.44
2022-08-25T07:07:43.006Z,98223.84
2022-08-25T07:10:52.958Z,98233.53
2022-08-25T07:13:58.891Z,98235.47
2022-08-25T07:17:10.486Z,98231.59
2022-08-25T07:20:19.215Z,98234.56
2022-08-25T07:23:26.017Z,98230.91
2022-08-25T07:26:43.902Z,98222.84
2022-08-25T07:29:54.165Z,98230.50
2022-08-25T07:33:00.808Z,98229.34
2022-08-25T07:36:09.986Z,98227.53
2022-08-25T07:39:16.861Z,98224.28
2022-08-25T07:42:27.223Z,98228.09
2022-08-25T07:45:37.535Z,98232.22
2022-08-25T07:48:55.184Z,98234.69
2022-08-25T07:52:05.412Z,98236.25
2022-08-25T07:55:17.957Z,98228.00
2022-08-25T07:58:26.331Z,98229.72
2022-08-25T08:01:32.103Z,98228.34
2022-08-25T08:04:40.283Z,98225.16
2022-08-25T08:07:46.879Z,98221.91
2022-08-25T08:11:04.760Z,98224.94
2022-08-25T08:14:16.244Z,98221.38
2022-08-25T08:17:25.904Z,98227.38
2022-08-25T08:20:42.825Z,98222.09
2022-08-25T08:23:49.204Z,98220.66
2022-08-25T08:26:59.032Z,98221.69
2022-08-25T08:30:10.035Z,98217.44
2022-08-25T08:33:16.717Z,98219.00
2022-08-25T08:36:25.485Z,98220.91
2022-08-25T08:39:33.327Z,98219.44
2022-08-25T08:42:58.776Z,98223.59
2022-08-25T08:46:13.801Z,98217.66
2022-08-25T08:49:38.162Z,98216.69
2022-08-25T08:53:02.468Z,98225.22
2022-08-25T08:56:18.606Z,98226.25
2022-08-25T08:59:37.593Z,98220.00
2022-08-25T09:03:00.882Z,98222.41
2022-08-25T09:06:16.584Z,98222.47
2022-08-25T09:09:35.674Z,98226.38
2022-08-25T09:12:58.929Z,98235.13
2022-08-25T09:16:47.464Z,98226.09
2022-08-25T09:20:19.354Z,98218.38
2022-08-25T09:23:46.248Z,98206.41
2022-08-25T09:27:09.503Z,98215.25
2022-08-25T09:30:26.385Z,98211.88
2022-08-25T09:33:37.465Z,98211.16
2022-08-25T09:36:53.393Z,98207.19
2022-08-25T09:40:09.852Z,98212.94
2022-08-25T09:43:26.168Z,98194.19
2022-08-25T09:46:33.236Z,98212.13
2022-08-25T09:49:44.774Z,98202.63
2022-08-25T09:52:53.945Z,98207.41
2022-08-25T09:56:19.558Z,98205.00
2022-08-25T09:59:34.851Z,98204.28
2022-08-25T10:02:43.270Z,98196.03
2022-08-25T10:06:13.190Z,98193.56
2022-08-25T10:09:37.577Z,98190.19
2022-08-25T10:12:55.371Z,98190.34
2022-08-25T10:16:24.354Z,98182.72
2022-08-25T10:19:33.089Z,98175.78
2022-08-25T10:22:41.093Z,98185.91
2022-08-25T10:26:01.835Z,98178.72
2022-08-25T10:29:38.237Z,98174.34
2022-08-25T10:33:13.133Z,98163.69
2022-08-25T10:36:26.004Z,98161.78
2022-08-25T10:39:44.314Z,98161.53
2022-08-25T10:43:12.035Z,98161.59
2022-08-25T10:46:33.315Z,98161.03
2022-08-25T10:49:50.929Z,98161.16
2022-08-25T10:53:28.431Z,98156.97
2022-08-25T10:56:41.855Z,98145.47
2022-08-25T11:00:14.297Z,98144.63
2022-08-25T11:03:48.059Z,98152.97
2022-08-25T11:07:03.558Z,98139.97
2022-08-25T11:10:16.643Z,98141.09
2022-08-25T11:13:44.801Z,98135.22
2022-08-25T11:17:10.603Z,98134.34
2022-08-25T11:20:33.899Z,98134.97
2022-08-25T11:23:47.257Z,98134.25
2022-08-25T11:26:59.229Z,98128.47
2022-08-25T11:30:11.985Z,98114.34
2022-08-25T11:33:34.051Z,98114.59
2022-08-25T11:36:45.875Z,98107.53
2022-08-25T11:40:45.560Z,98104.91
2022-08-25T11:44:40.139Z,98107.63
2022-08-25T11:48:27.865Z,98092.81
2022-08-25T11:51:44.141Z,98090.34
2022-08-25T11:54:50.844Z,98094.69
2022-08-25T11:58:35.820Z,98086.72
2022-08-25T12:02:33.310Z,98084.63
2022-08-25T12:06:18.234Z,98072.13
2022-08-25T12:09:25.065Z,98077.50
2022-08-25T12:12:40.397Z,98075.81
2022-08-25T12:16:09.606Z,98077.81
2022-08-25T12:19:50.365Z,98067.47
2022-08-25T12:23:02.316Z,98064.50
2022-08-25T12:26:30.179Z,98067.06
2022-08-25T12:29:49.371Z,98063.78
2022-08-25T12:33:22.165Z,98065.16
2022-08-25T12:36:42.769Z,98054.31
2022-08-25T12:40:10.453Z,98065.94
2022-08-25T12:43:33.983Z,98063.06
2022-08-25T12:46:48.340Z,98056.72
2022-08-25T12:49:54.844Z,98059.47
2022-08-25T12:53:18.491Z,98055.50
2022-08-25T12:56:42.495Z,98047.59
2022-08-25T12:59:57.561Z,98044.19
2022-08-25T13:03:55.708Z,98046.22
2022-08-25T13:07:25.217Z,98046.38
2022-08-25T13:10:51.689Z,98047.88
2022-08-25T13:14:10.883Z,98048.38
2022-08-25T13:17:33.723Z,98041.31
2022-08-25T13:20:39.697Z,98035.00
2022-08-25T13:23:59.168Z,98022.34
2022-08-25T13:27:23.271Z,98018.84
2022-08-25T13:30:48.626Z,98016.53
2022-08-25T13:34:12.639Z,98022.28
2022-08-25T13:37:33.488Z,98019.50
2022-08-25T13:40:39.652Z,98018.63
2022-08-25T13:43:49.240Z,98021.47
2022-08-25T13:47:16.851Z,98029.50
2022-08-25T13:50:42.589Z,98022.63
2022-08-25T13:54:00.330Z,98016.41
2022-08-25T13:57:21.743Z,98013.63
2022-08-25T14:00:43.214Z,98011.81
2022-08-25T14:03:54.845Z,98024.31
2022-08-25T14:07:34.310Z,98008.47
2022-08-25T14:10:45.833Z,98005.44
2022-08-25T14:14:08.618Z,98010.06
2022-08-25T14:17:39.974Z,98003.63
2022-08-25T14:20:57.700Z,98000.56
2022-08-25T14:24:07.511Z,98003.72
2022-08-25T14:27:30.093Z,98004.91
2022-08-25T14:30:43.501Z,97999.41
2022-08-25T14:34:01.158Z,97995.25
2022-08-25T14:37:19.143Z,97985.47
2022-08-25T14:40:25.798Z,97987.19
2022-08-25T14:43:32.341Z,97978.88
2022-08-25T14:46:44.599Z,97977.00
2022-08-25T14:49:52.856Z,97983.72
2022-08-25T14:53:00.990Z,97980.69
2022-08-25T14:56:09.310Z,97987.16
2022-08-25T14:59:18.691Z,97980.78
2022-08-25T15:02:29.627Z,97983.13
2022-08-25T15:05:37.397Z,97983.13
2022-08-25T15:09:06.661Z,97978.66
2022-08-25T15:12:46.082Z,97981.56
2022-08-25T15:16:02.618Z,97976.81
2022-08-25T15:19:11.743Z,97975.91
2022-08-25T15:22:17.354Z,97979.56
2022-08-25T15:25:25.728Z,97973.53
2022-08-25T15:28:31.293Z,97979.44
2022-08-25T15:31:42.836Z,97983.44
2022-08-25T15:34:50.257Z,97968.47
2022-08-25T15:37:55.830Z,97976.50
2022-08-25T15:41:05.181Z,97969.88
2022-08-25T15:44:12.699Z,97968.25
2022-08-25T15:47:19.112Z,97965.53
2022-08-25T15:50:27.076Z,97960.84
2022-08-25T15:53:32.722Z,97958.13
2022-08-25T15:56:44.161Z,97959.66
2022-08-25T15:59:50.508Z,97956.34
2022-08-25T16:02:55.977Z,97961.63
2022-08-25T16:06:01.991Z,97963.88
2022-08-25T16:09:10.282Z,97957.94
2022-08-25T16:12:18.849Z,97966.81
2022-08-25T16:15:28.885Z,97964.69
2022-08-25T16:18:34.661Z,97974.63
2022-08-25T16:21:42.193Z,97972.13
2022-08-25T16:24:53.098Z,97971.28
2022-08-25T16:28:02.901Z,97967.53
2022-08-25T16:31:12.448Z,97958.91
2022-08-25T16:34:18.974Z,97968.56
2022-08-25T16:37:26.633Z,97964.28
2022-08-25T16:40:32.381Z,97967.81
2022-08-25T16:43:45.515Z,97972.59
2022-08-25T16:46:54.628Z,97961.53
2022-08-25T16:50:00.406Z,97963.09
2022-08-25T16:53:27.238Z,97967.88
2022-08-25T16:56:36.198Z,97968.97
2022-08-25T16:59:46.483Z,97968.53
2022-08-25T17:02:54.615Z,97969.84
2022-08-25T17:06:09.739Z,97971.69
2022-08-25T17:09:22.826Z,97969.31
2022-08-25T17:12:30.597Z,97969.75
2022-08-25T17:15:45.994Z,97960.28
2022-08-25T17:18:51.722Z,97959.03
2022-08-25T17:21:58.739Z,97962.84
2022-08-25T17:25:04.477Z,97967.03
2022-08-25T17:28:12.534Z,97969.06
2022-08-25T17:31:22.218Z,97967.66
2022-08-25T17:34:28.037Z,97969.38
2022-08-25T17:37:34.178Z,97978.22
2022-08-25T17:40:40.468Z,97967.19
2022-08-25T17:43:46.663Z,97973.00
2022-08-25T17:46:55.114Z,97978.25
2022-08-25T17:50:02.756Z,97981.38
2022-08-25T17:53:09.310Z,97974.34
2022-08-25T17:56:19.890Z,97975.25
2022-08-25T17:59:25.432Z,97981.28
2022-08-25T18:02:33.526Z,97984.13
2022-08-25T18:05:41.695Z,97975.50
2022-08-25T18:08:51.774Z,97974.16
2022-08-25T18:11:59.595Z,97970.69
2022-08-25T18:15:08.545Z,97970.75
2022-08-25T18:18:24.348Z,97975.44
2022-08-25T18:21:30.979Z,97978.47
2022-08-25T18:24:37.461Z,97986.16
2022-08-25T18:27:44.095Z,97985.06
2022-08-25T18:30:49.800Z,97993.56
2022-08-25T18:33:58.072Z,97995.47
2022-08-25T18:37:24.117Z,97991.19
2022-08-25T18:40:28.331Z,97996.94
2022-08-25T18:43:35.471Z,97996.66
2022-08-25T18:46:42.393Z,97998.31
2022-08-25T18:49:52.624Z,98002.94
2022-08-25T18:52:58.927Z,97998.31
2022-08-25T18:56:04.550Z,97998.88
2022-08-25T18:59:10.287Z,97995.88
2022-08-25T19:02:16.950Z,98004.34
2022-08-25T19:05:32.443Z,98003.50
2022-08-25T19:08:41.708Z,98002.44
2022-08-25T19:11:47.701Z,98006.56
2022-08-25T19:14:53.422Z,98001.41
2022-08-25T19:18:01.644Z,98009.31
2022-08-25T19:21:10.762Z,98003.06
2022-08-25T19:24:17.449Z,98011.50
2022-08-25T19:27:24.067Z,98001.19
2022-08-25T19:30:34.414Z,97999.00
2022-08-25T19:33:43.974Z,98000.16
2022-08-25T19:36:53.445Z,98005.34
2022-08-25T19:39:59.296Z,97993.88
2022-08-25T19:43:05.051Z,97993.63
2022-08-25T19:46:12.345Z,97995.53
2022-08-25T19:49:25.879Z,97995.78
2022-08-25T19:52:34.612Z,97992.78
2022-08-25T19:55:42.966Z,97989.81
2022-08-25T19:58:48.984Z,97991.44
2022-08-25T20:01:54.579Z,97990.63
2022-08-25T20:05:02.299Z,97984.38
2022-08-25T20:08:10.437Z,97989.84
2022-08-25T20:11:15.943Z,97983.84
2022-08-25T20:14:23.542Z,97983.84
2022-08-25T20:17:29.267Z,97981.69
2022-08-25T20:20:35.619Z,97977.09
2022-08-25T20:23:56.803Z,97981.72
2022-08-25T20:27:02.752Z,97986.84
2022-08-25T20:30:14.484Z,97975.16
2022-08-25T20:33:23.089Z,97975.41
2022-08-25T20:36:29.276Z,97973.53
2022-08-25T20:39:37.712Z,97973.00
2022-08-25T20:42:44.346Z,97975.41
2022-08-25T20:45:50.252Z,97971.34
2022-08-25T20:48:55.930Z,97983.56
2022-08-25T20:52:02.985Z,97978.69
2022-08-25T20:55:14.002Z,97971.88
2022-08-25T20:58:20.661Z,97975.38
2022-08-25T21:01:37.988Z,97972.91
2022-08-25T21:04:49.070Z,97972.13
2022-08-25T21:07:56.130Z,97971.03
2022-08-25T21:11:05.256Z,97976.16
2022-08-25T21:14:11.429Z,97966.31
2022-08-25T21:17:19.525Z,97969.78
2022-08-25T21:20:27.216Z,97967.00
2022-08-25T21:23:32.842Z,97973.19
2022-08-25T21:26:48.563Z,97974.25
2022-08-25T21:29:55.398Z,97963.66
2022-08-25T21:33:01.000Z,97970.75
2022-08-25T21:36:10.729Z,97969.66
2022-08-25T21:39:17.353Z,97963.97
2022-08-25T21:42:27.716Z,97963.69
2022-08-25T21:45:36.066Z,97962.06
2022-08-25T21:48:42.273Z,97965.59
2022-08-25T21:51:50.992Z,97967.78
2022-08-25T21:55:08.131Z,97958.56
2022-08-25T21:58:24.442Z,97956.13
2022-08-25T22:01:30.125Z,97956.09
2022-08-25T22:04:36.532Z,97950.09
2022-08-25T22:07:44.236Z,97956.31
2022-08-25T22:10:49.856Z,97956.84
2022-08-25T22:14:09.936Z,97949.25
2022-08-25T22:17:35.230Z,97953.31
2022-08-25T22:20:41.452Z,97948.94
2022-08-25T22:23:50.350Z,97951.03
2022-08-25T22:26:55.985Z,97943.13
2022-08-25T22:30:10.908Z,97950.97
2022-08-25T22:33:16.767Z,97947.38
2022-08-25T22:36:25.588Z,97941.38
2022-08-25T22:39:32.142Z,97939.72
2022-08-25T22:42:39.879Z,97947.25
2022-08-25T22:45:48.635Z,97938.81
2022-08-25T22:48:57.505Z,97934.69
2022-08-25T22:52:03.104Z,97934.38
2022-08-25T22:55:14.743Z,97937.88
2022-08-25T22:58:24.598Z,97935.41
2022-08-25T23:01:42.024Z,97936.13
2022-08-25T23:04:47.526Z,97935.28
2022-08-25T23:07:53.409Z,97920.69
2022-08-25T23:11:00.018Z,97917.63
2022-08-25T23:14:20.347Z,97919.78
2022-08-25T23:17:32.125Z,97908.16
2022-08-25T23:20:51.094Z,97910.88
2022-08-25T23:23:56.903Z,97910.56
2022-08-25T23:27:08.633Z,97912.72
2022-08-25T23:30:17.744Z,97913.53
2022-08-25T23:33:27.704Z,97914.13
2022-08-25T23:36:40.680Z,97911.69
2022-08-25T23:39:49.382Z,97910.59
2022-08-25T23:42:55.705Z,97900.28
2022-08-25T23:46:01.379Z,97899.38
2022-08-25T23:49:18.654Z,97900.66
2022-08-25T23:52:28.662Z,97901.47
2022-08-25T23:55:52.876Z,97902.81
2022-08-25T23:58:59.505Z,97898.16
